Latest Weather Observations for Amberley

IDQ60801

Issued at 7:02 pm EST Wednesday 19 September 2018 (issued every 10 minutes, with the page automatically refreshed every 10 minutes)

About weather observations | Map of weather stations | Latest weather observations for QLD | Other Formats
Station Details ID: 040004 Name: AMBERLEY AMO Lat: -27.63 Lon: 152.71 Height: 24.2 m
Data from the previous 72 hours. | See also: Recent months at Amberley
Date/Time
EST
Temp
°C
App
Temp
°C
Dew
Point
°C
Rel
Hum
%
Delta-T
°C
Wind Press
QNH
hPa
Press
MSL
hPa
Rain since
9am
mm
Dir  Spd
km/h
Gust
km/h
Spd
kts
Gust
kts
19/06:30pm 21.6 18.7 13.0 58 4.9 E 20 30 11 16 1012.2 1012.1 0.0
19/06:00pm 22.2 18.7 13.3 57 5.1 ENE 24 33 13 18 1011.9 1011.8 0.0
19/05:30pm 23.1 20.0 13.3 54 5.7 ENE 22 28 12 15 1012.0 1011.9 0.0
19/05:00pm 24.4 20.9 13.3 50 6.5 ENE 24 33 13 18 1011.7 1011.6 0.0
19/04:30pm 25.2 20.2 13.4 48 6.9 ENE 32 37 17 20 1011.5 1011.4 0.0
19/04:00pm 25.7 21.0 13.2 46 7.3 ENE 30 37 16 20 1011.2 1011.1 0.0
19/03:30pm 26.1 21.3 12.9 44 7.7 ENE 30 37 16 20 1011.3 1011.2 0.0
19/03:00pm 27.1 22.6 12.7 41 8.4 E 28 35 15 19 1011.6 1011.5 0.0
19/02:30pm 27.5 23.3 12.3 39 8.8 E 26 33 14 18 1011.6 1011.5 0.0
19/02:00pm 28.4 26.4 10.1 32 10.3 N 11 20 6 11 1012.2 1012.1 0.0
19/01:30pm 28.1 24.9 9.9 32 10.2 NNW 17 30 9 16 1012.8 1012.7 0.0
19/01:00pm 28.1 26.5 11.6 36 9.5 NE 11 19 6 10 1013.4 1013.3 0.0
19/12:30pm 26.6 25.1 10.7 37 9.0 S 9 26 5 14 1014.1 1014.0 0.0
19/12:00pm 25.4 23.7 11.2 41 8.0 ESE 11 19 6 10 1015.2 1015.1 0.0
19/11:30am 25.0 23.7 11.2 42 7.8 ENE 9 13 5 7 1016.0 1016.0 0.0
19/11:00am 24.3 22.1 10.9 43 7.5 ENE 13 19 7 10 1016.8 1016.8 0.0
19/10:30am 23.6 22.3 11.3 46 6.9 NE 9 19 5 10 1017.3 1017.3 0.0
19/10:00am 22.4 20.2 10.9 48 6.3 WNW 13 22 7 12 1017.7 1017.7 0.0
19/09:30am 21.6 20.2 11.0 51 5.8 N 9 15 5 8 1018.2 1018.2 0.0
19/09:00am 20.1 19.6 10.8 55 5.1 NW 4 11 2 6 1018.8 1018.8 -
19/08:30am 18.5 - - - - SW 6 11 3 6 1019.3 1019.3 -
19/08:00am 16.3 - - - - SSW 4 9 2 5 1019.5 1019.5 -
19/07:30am 14.2 - - - - WSW 4 7 2 4 1019.6 1019.6 -
19/07:00am 11.7 - - - - CALM 0 0 0 0 1019.4 1019.4 -
19/06:30am 9.9 - - - - CALM 0 0 0 0 1019.2 1019.2 -
19/06:00am 9.1 - - - - CALM 0 0 0 0 1019.0 1019.0 -
19/05:30am 9.0 - - - - CALM 0 7 0 4 1018.5 1018.5 -
19/05:00am 8.1 - - - - SSW 7 9 4 5 1018.3 1018.3 -
19/04:30am 8.2 - - - - CALM 0 0 0 0 1018.1 1018.1 -
19/04:00am 8.8 - - - - CALM 0 0 0 0 1018.0 1018.0 -
19/03:30am 8.6 - - - - CALM 0 0 0 0 1017.8 1017.8 -
19/03:00am 9.0 - - - - CALM 0 0 0 0 1017.8 1017.8 0.0
19/02:30am 8.9 - - - - SSW 6 7 3 4 1017.9 1017.9 -
19/02:00am 9.6 - - - - CALM 0 0 0 0 1018.2 1018.2 -
19/01:30am 9.6 - - - - CALM 0 0 0 0 1018.5 1018.5 -
19/01:00am 9.9 - - - - CALM 0 0 0 0 1019.1 1019.1 -
19/12:30am 10.6 - - - - CALM 0 0 0 0 1019.3 1019.3 -
19/12:00am 11.0 - - - - CALM 0 0 0 0 1019.4 1019.4 -
 
Date/Time
EST
Temp
°C
App
Temp
°C
Dew
Point
°C
Rel
Hum
%
Delta-T
°C
Wind Press
QNH
hPa
Press
MSL
hPa
Rain since
9am
mm
Dir  Spd
km/h
Gust
km/h
Spd
kts
Gust
kts
18/11:30pm 11.2 - - - - CALM 0 0 0 0 1019.6 1019.6 -
18/11:00pm 11.9 - - - - CALM 0 0 0 0 1019.6 1019.6 -
18/10:30pm 11.8 - - - - SSW 6 7 3 4 1019.7 1019.7 -
18/10:00pm 13.7 - - - - ESE 7 9 4 5 1019.5 1019.5 -
18/09:30pm 15.2 - - - - E 7 7 4 4 1019.5 1019.5 -
18/09:00pm 15.4 - - - - ENE 6 7 3 4 1019.5 1019.5 0.0
18/08:30pm 17.1 - - - - ENE 11 15 6 8 1019.2 1019.2 -
18/08:00pm 17.8 - - - - ENE 15 19 8 10 1019.2 1019.2 -
18/07:30pm 18.2 - - - - ENE 19 26 10 14 1019.1 1019.1 -
18/07:00pm 18.5 - - - - ENE 20 32 11 17 1018.8 1018.8 -
18/06:30pm 19.0 - - - - ENE 24 32 13 17 1018.3 1018.3 -
18/06:00pm 19.6 - - - - ENE 26 35 14 19 1018.1 1018.1 -
18/05:30pm 20.5 - - - - ENE 24 33 13 18 1017.7 1017.7 -
18/05:00pm 21.7 - - - - ENE 28 33 15 18 1017.4 1017.4 -
18/04:30pm 22.3 - - - - NE 26 32 14 17 1017.4 1017.4 -
18/04:00pm 23.4 - - - - NE 24 32 13 17 1017.2 1017.2 -
18/03:30pm 24.1 - - - - ENE 28 37 15 20 1017.1 1017.1 -
18/03:00pm 24.8 - - - - ENE 17 28 9 15 1017.4 1017.4 -
18/02:30pm 25.3 - - - - NNE 17 26 9 14 1017.7 1017.7 -
18/02:00pm 23.9 - - - - E 17 26 9 14 1018.2 1018.2 -
18/01:30pm 23.3 - - - - NE 11 17 6 9 1018.8 1018.8 -
18/01:00pm 22.9 - - - - ENE 11 17 6 9 1019.3 1019.3 -
18/12:30pm 22.6 - - - - NE 17 26 9 14 1020.0 1020.0 -
18/12:00pm 24.6 - - - - E 17 28 9 15 1020.6 1020.6 -
18/11:30am - - - - - ENE 9 20 5 11 1021.4 1021.4 -
18/11:00am - - - - - E 7 17 4 9 1022.2 1022.2 -
18/10:30am 21.9 18.7 8.6 42 7.0 NE 15 26 8 14 1022.6 1022.6 0.0
18/10:07am 21.8 18.8 9.2 44 6.7 NE 15 26 8 14 1023.0 1023.0 0.0
18/10:00am 22.0 19.5 9.7 45 6.6 NE 13 24 7 13 1023.0 1023.0 0.0
18/09:30am 20.8 19.2 10.2 50 5.7 ENE 9 17 5 9 1023.3 1023.3 0.0
18/09:00am 19.5 17.7 9.5 52 5.3 S 9 13 5 7 1023.6 1023.6 0.0
18/08:30am 17.9 16.1 8.1 52 5.0 SW 7 11 4 6 1023.8 1023.8 0.0
18/08:00am 15.7 14.1 7.9 59 3.9 SW 6 11 3 6 1023.7 1023.7 0.0
18/07:30am 13.8 12.0 7.9 67 2.9 SW 7 11 4 6 1023.5 1023.5 0.0
18/07:00am 12.7 11.1 8.7 76 2.0 SSW 7 9 4 5 1023.6 1023.6 0.0
18/06:30am 9.6 8.4 8.1 90 0.7 SW 4 7 2 4 1023.4 1023.4 0.0
18/06:00am 8.2 7.1 6.7 90 0.7 SW 2 6 1 3 1023.1 1023.1 0.0
18/05:30am 8.4 6.4 6.9 90 0.7 SW 7 9 4 5 1022.9 1022.9 0.0
18/05:00am 8.1 5.9 6.3 88 0.8 SW 7 9 4 5 1022.6 1022.6 0.0
18/04:30am 9.5 7.2 7.4 87 1.0 SW 9 11 5 6 1022.3 1022.3 0.0
18/04:00am 9.0 7.9 7.1 88 0.9 SW 2 7 1 4 1022.2 1022.2 0.0
18/03:30am 9.4 7.1 7.5 88 0.9 SW 9 11 5 6 1022.1 1022.1 0.0
18/03:00am 9.3 7.9 7.4 88 0.9 SW 4 9 2 5 1022.1 1022.1 0.0
18/02:30am 9.1 8.5 7.2 88 0.9 CALM 0 0 0 0 1022.0 1022.0 0.0
18/02:00am 9.1 8.5 7.2 88 0.9 CALM 0 0 0 0 1022.2 1022.2 0.0
18/01:30am 8.4 7.6 6.7 89 0.8 CALM 0 0 0 0 1022.4 1022.4 0.0
18/01:00am 9.7 9.1 7.4 85 1.1 CALM 0 0 0 0 1022.5 1022.5 0.0
18/12:30am 10.0 9.3 7.0 81 1.4 CALM 0 0 0 0 1022.7 1022.7 0.0
18/12:00am 10.8 10.1 7.0 77 1.8 CALM 0 0 0 0 1022.8 1022.8 0.0
 
Date/Time
EST
Temp
°C
App
Temp
°C
Dew
Point
°C
Rel
Hum
%
Delta-T
°C
Wind Press
QNH
hPa
Press
MSL
hPa
Rain since
9am
mm
Dir  Spd
km/h
Gust
km/h
Spd
kts
Gust
kts
17/11:30pm 10.7 10.0 6.9 77 1.8 CALM 0 4 0 2 1022.8 1022.8 0.0
17/11:00pm 12.7 12.0 7.1 69 2.7 CALM 0 0 0 0 1022.6 1022.6 0.0
17/10:30pm 13.5 12.7 8.0 69 2.7 SSE 2 6 1 3 1022.7 1022.7 0.0
17/10:00pm 14.0 12.3 7.5 65 3.2 S 6 9 3 5 1022.6 1022.6 0.0
17/09:30pm 15.4 12.8 7.8 60 3.8 ESE 11 15 6 8 1022.7 1022.7 0.0
17/09:00pm 15.9 12.2 8.1 60 3.9 E 17 24 9 13 1022.5 1022.5 0.0
17/08:30pm 16.3 13.6 8.9 61 3.8 E 13 19 7 10 1022.6 1022.6 0.0
17/08:00pm 16.7 12.9 8.9 60 4.0 ENE 19 28 10 15 1022.4 1022.4 0.0
17/07:30pm 17.1 13.0 8.7 57 4.3 ENE 20 30 11 16 1022.3 1022.3 0.0
17/07:00pm 17.3 12.4 8.5 56 4.5 ENE 24 35 13 19 1021.8 1021.8 0.0
17/06:30pm 17.9 12.5 8.1 52 5.0 ENE 26 37 14 20 1021.2 1021.2 0.0
17/06:00pm 18.4 13.8 8.0 50 5.3 ENE 22 33 12 18 1020.8 1020.8 0.0
17/05:30pm 19.2 13.8 7.9 48 5.8 ENE 26 35 14 19 1020.2 1020.2 0.0
17/05:00pm 20.3 15.3 8.1 45 6.3 ENE 24 35 13 19 1019.8 1019.8 0.0
17/04:30pm 21.5 16.1 8.1 42 7.0 ENE 26 33 14 18 1019.6 1019.6 0.0
17/04:00pm 21.4 16.9 7.1 39 7.3 E 20 30 11 16 1019.2 1019.2 0.0
17/03:30pm 22.4 17.0 6.5 35 8.1 ENE 24 32 13 17 1018.8 1018.8 0.0
17/03:00pm 24.1 19.6 6.1 31 9.2 ENE 19 28 10 15 1018.6 1018.6 0.0
17/02:30pm 23.5 19.2 5.1 30 9.2 ENE 17 26 9 14 1018.8 1018.8 0.0
17/02:00pm 23.9 19.0 4.9 29 9.5 E 20 28 11 15 1018.9 1018.9 0.0
17/01:30pm 24.8 20.0 4.9 27 10.0 NNE 19 26 10 14 1019.3 1019.3 0.0
17/01:00pm 24.1 20.4 4.6 28 9.7 ESE 13 28 7 15 1019.5 1019.5 0.0
17/12:30pm 22.9 19.1 5.6 32 8.7 NE 15 26 8 14 1020.1 1020.1 0.0
17/12:00pm 23.1 19.2 5.3 31 8.9 NE 15 26 8 14 1020.4 1020.4 0.0
17/11:30am 22.2 19.0 5.3 33 8.4 NNE 11 20 6 11 1021.0 1021.0 0.0
17/11:00am 22.0 18.1 5.3 33 8.3 E 15 26 8 14 1021.5 1021.5 0.0
17/10:30am 21.7 17.3 4.8 33 8.3 ESE 17 32 9 17 1021.9 1021.9 0.0
17/10:00am 21.0 16.6 4.8 34 7.9 SE 17 32 9 17 1022.1 1022.1 0.0
17/09:30am 20.2 16.3 5.3 37 7.3 E 15 24 8 13 1022.3 1022.3 0.0
17/09:00am 18.7 16.7 6.1 43 6.2 SE 6 15 3 8 1022.4 1022.4 0.0
17/08:30am 18.1 14.6 5.5 43 6.1 S 13 19 7 10 1022.3 1022.3 0.0
17/08:00am 16.7 13.4 6.2 50 5.1 S 13 19 7 10 1022.1 1022.1 0.0
17/07:30am 15.7 12.0 6.2 53 4.6 SSW 15 19 8 10 1021.7 1021.7 0.0
17/07:00am 14.3 11.9 6.9 61 3.6 SSW 9 13 5 7 1021.4 1021.4 0.0
17/06:30am 11.4 9.0 7.2 75 2.0 SSW 9 11 5 6 1021.0 1021.0 0.0
17/06:00am 9.3 6.7 6.3 81 1.4 SSW 9 11 5 6 1020.8 1020.8 0.0
17/05:30am 8.3 7.4 6.1 86 1.0 CALM 0 0 0 0 1020.4 1020.4 0.0
17/05:00am 8.1 6.0 5.9 86 1.0 SSW 6 9 3 5 1020.2 1020.2 0.0
17/04:30am 8.2 5.9 5.5 83 1.2 SSW 7 7 4 4 1019.6 1019.6 0.0
17/04:00am 8.6 6.4 5.5 81 1.4 SSW 6 7 3 4 1019.2 1019.2 0.0
17/03:30am 9.6 7.3 5.6 76 1.8 SSW 7 9 4 5 1018.9 1018.9 0.0
17/03:00am 10.5 8.3 6.0 74 2.1 SSW 7 7 4 4 1018.8 1018.8 0.0
17/02:30am 11.8 9.5 5.5 65 2.9 SSW 7 9 4 5 1018.9 1018.9 0.0
17/02:00am 11.1 8.8 5.7 69 2.5 SSW 7 7 4 4 1019.1 1019.1 0.0
17/01:30am 11.9 9.1 5.1 63 3.1 SSW 9 11 5 6 1019.2 1019.2 0.0
17/01:00am 12.7 10.0 5.4 61 3.4 SSW 9 11 5 6 1019.3 1019.3 0.0
17/12:30am 14.1 11.0 5.4 56 4.1 SSW 11 13 6 7 1019.3 1019.3 0.0
17/12:00am 13.8 11.3 6.5 61 3.5 SSW 9 11 5 6 1019.4 1019.4 0.0
 
Date/Time
EST
Temp
°C
App
Temp
°C
Dew
Point
°C
Rel
Hum
%
Delta-T
°C
Wind Press
QNH
hPa
Press
MSL
hPa
Rain since
9am
mm
Dir  Spd
km/h
Gust
km/h
Spd
kts
Gust
kts
16/11:30pm 13.0 10.1 6.3 64 3.2 S 11 13 6 7 1019.3 1019.3 0.0
16/11:00pm 14.6 11.7 6.3 57 4.0 SSW 11 13 6 7 1019.3 1019.3 0.0
16/10:30pm 14.5 12.0 6.6 59 3.8 SSW 9 11 5 6 1019.4 1019.4 0.0
16/10:00pm 15.3 12.6 7.2 58 4.0 S 11 13 6 7 1019.4 1019.4 0.0
16/09:30pm 15.4 12.7 7.3 58 4.0 SSE 11 13 6 7 1019.1 1019.1 0.0
16/09:00pm 15.4 12.5 8.0 61 3.7 SSE 13 17 7 9 1018.7 1018.7 0.0
16/08:30pm 17.3 13.9 9.0 58 4.3 ESE 17 20 9 11 1018.3 1018.3 0.0
16/08:00pm 17.2 15.4 9.5 60 4.0 E 9 11 5 6 1017.9 1017.9 0.0
16/07:30pm 17.4 15.5 9.1 58 4.3 E 9 13 5 7 1017.2 1017.2 0.0

Other Formats:

Comma delimited format used in spreadsheet applications
http://www.bom.gov.au/fwo/IDQ60801/IDQ60801.94568.axf

JavaScript Object Notation format (JSON) in row-major order
http://www.bom.gov.au/fwo/IDQ60801/IDQ60801.94568.json